Time;durP1;ratioP1;P1;durP2;ratioP2;P2;SDS_P1;SDS_P2;PMS_P1;PMS_P2;Temp;Humidity;BMP_temperature;BMP_pressure;BME280_temperature;BME280_humidity;BME280_pressure;Samples;Min_cycle;Max_cycle;Signal;HPM_P1;HPM_P2
2022/10/14 17:17:57;;;;;;;1.43;1.00;;;20.10;99.90;;;;;;5089864;27;20549;-66
2022/10/14 17:20:25;;;;;;;0.90;0.90;;;20.00;99.90;;;;;;5090385;28;21052;-65
2022/10/14 17:22:51;;;;;;;1.00;1.00;;;20.10;99.90;;;;;;5086199;28;20852;-66
2022/10/14 17:25:18;;;;;;;1.40;1.30;;;20.10;99.90;;;;;;5070462;28;20504;-67
2022/10/14 17:27:45;;;;;;;2.03;1.30;;;20.20;99.90;;;;;;5069770;28;20432;-68
2022/10/14 17:30:12;;;;;;;1.23;1.13;;;20.30;99.90;;;;;;5070312;28;20546;-65
2022/10/14 17:32:39;;;;;;;1.53;1.43;;;20.30;99.90;;;;;;5071598;28;20482;-66
2022/10/14 17:35:08;;;;;;;1.87;1.77;;;20.30;99.90;;;;;;5090106;28;20435;-64
2022/10/14 17:37:35;;;;;;;1.27;1.27;;;20.30;99.90;;;;;;5090621;28;20478;-64
2022/10/14 17:40:02;;;;;;;1.33;1.20;;;20.40;99.90;;;;;;5070878;28;20655;-63
2022/10/14 17:42:30;;;;;;;2.10;1.53;;;20.40;99.90;;;;;;5069750;28;20447;-64
2022/10/14 17:44:57;;;;;;;2.70;1.40;;;20.50;99.90;;;;;;5076808;28;20439;-64
2022/10/14 17:47:24;;;;;;;1.30;1.20;;;20.50;99.90;;;;;;5088011;28;20473;-64
2022/10/14 17:49:51;;;;;;;1.87;1.77;;;20.50;99.90;;;;;;5074306;28;20451;-65
2022/10/14 17:52:19;;;;;;;1.77;1.67;;;20.50;99.90;;;;;;5070225;28;20906;-64
2022/10/14 17:54:46;;;;;;;1.40;1.40;;;20.50;99.90;;;;;;5088957;28;20469;-65
2022/10/14 17:57:12;;;;;;;1.63;1.53;;;20.50;99.90;;;;;;5090043;28;20494;-64
2022/10/14 17:59:39;;;;;;;1.77;1.67;;;20.60;99.90;;;;;;5090101;28;20445;-64
2022/10/14 18:02:08;;;;;;;1.43;1.17;;;20.60;99.90;;;;;;5090040;28;20558;-64
2022/10/14 18:04:36;;;;;;;1.60;1.15;;;20.60;99.90;;;;;;5086192;28;20443;-65
2022/10/14 18:07:03;;;;;;;2.40;1.30;;;20.60;99.90;;;;;;5088331;28;20197;-65
2022/10/14 18:09:32;;;;;;;1.47;1.37;;;20.60;99.90;;;;;;5087963;28;20447;-66
2022/10/14 18:11:59;;;;;;;1.10;1.00;;;20.60;99.90;;;;;;5088055;28;20443;-65
2022/10/14 18:14:28;;;;;;;1.60;1.23;;;20.70;99.90;;;;;;5071263;28;20953;-65
2022/10/14 18:16:55;;;;;;;1.53;1.43;;;20.70;99.90;;;;;;5067696;28;20487;-64
2022/10/14 18:19:22;;;;;;;1.03;1.03;;;20.60;99.90;;;;;;5067783;28;20447;-65
2022/10/14 18:21:50;;;;;;;1.80;1.70;;;20.70;99.90;;;;;;5067589;28;20463;-64
2022/10/14 18:24:17;;;;;;;1.40;1.40;;;20.70;99.90;;;;;;5081740;28;20542;-64
2022/10/14 18:26:45;;;;;;;2.20;1.20;;;20.70;99.90;;;;;;5088198;28;20474;-66
2022/10/14 18:29:12;;;;;;;1.40;1.27;;;20.70;99.90;;;;;;5075049;28;20450;-65
2022/10/14 18:31:39;;;;;;;1.27;1.17;;;20.70;99.90;;;;;;5074279;28;20934;-65
2022/10/14 18:34:09;;;;;;;1.53;1.53;;;20.70;99.90;;;;;;5061373;28;20535;-65
2022/10/14 18:36:35;;;;;;;1.33;1.30;;;20.70;99.90;;;;;;5054340;28;20480;-66
2022/10/14 18:39:05;;;;;;;1.20;1.20;;;20.70;99.90;;;;;;5054119;28;20935;-66
2022/10/14 18:41:32;;;;;;;1.00;1.00;;;20.70;99.90;;;;;;5053933;28;20913;-67
2022/10/14 18:44:01;;;;;;;1.27;1.27;;;20.80;99.90;;;;;;5065741;28;20501;-64
2022/10/14 18:46:29;;;;;;;1.27;1.27;;;20.80;99.90;;;;;;5074952;28;20526;-64
2022/10/14 18:48:58;;;;;;;2.20;1.67;;;20.80;99.90;;;;;;5075145;28;20454;-65
2022/10/14 18:51:26;;;;;;;1.40;1.30;;;20.80;99.90;;;;;;5071092;28;20543;-65
2022/10/14 18:53:56;;;;;;;1.60;1.10;;;20.80;99.90;;;;;;5061134;28;20513;-65
2022/10/14 18:56:25;;;;;;;1.53;1.53;;;20.80;99.90;;;;;;5074782;28;20567;-65
2022/10/14 18:58:55;;;;;;;1.17;1.17;;;20.80;99.90;;;;;;5074730;28;20444;-65
2022/10/14 19:01:24;;;;;;;1.13;1.13;;;20.80;99.90;;;;;;5074424;28;20528;-65
2022/10/14 19:03:51;;;;;;;1.13;1.10;;;20.80;99.90;;;;;;5073522;28;20447;-65
2022/10/14 19:06:20;;;;;;;1.03;1.03;;;20.80;99.90;;;;;;5074570;28;20895;-65
2022/10/14 19:08:48;;;;;;;1.13;1.03;;;20.80;99.70;;;;;;5075186;28;20448;-67
2022/10/14 19:11:18;;;;;;;1.53;1.30;;;20.80;99.70;;;;;;5075078;28;20502;-66
2022/10/14 19:13:46;;;;;;;1.20;1.10;;;20.80;99.70;;;;;;5070868;28;20448;-70
2022/10/14 19:16:16;;;;;;;1.10;1.10;;;20.80;99.80;;;;;;5055429;28;20459;-69
2022/10/14 19:18:44;;;;;;;1.20;1.10;;;20.80;99.60;;;;;;5055514;28;20450;-67
2022/10/14 19:21:13;;;;;;;2.93;1.60;;;20.70;99.90;;;;;;5055239;28;20974;-68
2022/10/14 19:23:42;;;;;;;1.20;1.20;;;20.70;99.90;;;;;;5058069;28;20522;-68
2022/10/14 19:26:13;;;;;;;1.20;1.20;;;20.70;99.90;;;;;;5074567;28;20439;-67
2022/10/14 19:28:41;;;;;;;1.57;1.30;;;20.70;99.90;;;;;;5075298;28;20435;-66
2022/10/14 19:31:08;;;;;;;1.97;1.87;;;20.70;99.90;;;;;;5073763;28;20458;-70
2022/10/14 19:33:36;;;;;;;1.87;1.70;;;20.70;99.90;;;;;;5071229;28;20526;-68
2022/10/14 19:36:06;;;;;;;1.13;1.07;;;20.80;99.90;;;;;;5054404;28;20440;-67
2022/10/14 19:38:33;;;;;;;1.50;1.40;;;20.80;99.90;;;;;;5053834;28;20711;-69
2022/10/14 19:41:01;;;;;;;1.33;1.23;;;20.90;99.90;;;;;;5053442;28;20551;-69
2022/10/14 19:43:29;;;;;;;1.47;1.37;;;20.90;99.90;;;;;;5054775;28;20536;-65
2022/10/14 19:45:57;;;;;;;1.37;1.27;;;20.90;99.90;;;;;;5074323;28;20448;-67
2022/10/14 19:48:24;;;;;;;1.03;1.03;;;21.00;99.90;;;;;;5074604;28;20440;-71
2022/10/14 19:50:51;;;;;;;2.33;1.80;;;21.00;99.90;;;;;;5073147;28;20550;-67
2022/10/14 19:53:20;;;;;;;1.27;0.87;;;21.10;99.90;;;;;;5074721;28;21049;-67
2022/10/14 19:55:47;;;;;;;1.50;1.40;;;21.20;99.90;;;;;;5073923;28;20568;-66
2022/10/14 19:58:14;;;;;;;1.23;1.23;;;21.20;99.90;;;;;;5073622;28;20475;-66
2022/10/14 20:00:41;;;;;;;1.97;1.80;;;21.20;99.90;;;;;;5073033;28;20499;-65
2022/10/14 20:03:07;;;;;;;1.40;1.40;;;21.20;99.90;;;;;;5053631;28;20502;-66
2022/10/14 20:05:35;;;;;;;1.10;1.10;;;21.20;99.90;;;;;;5054036;28;20488;-66
2022/10/14 20:08:02;;;;;;;1.17;1.10;;;21.30;99.90;;;;;;5053757;28;20903;-67
2022/10/14 20:10:30;;;;;;;1.80;1.57;;;21.30;99.90;;;;;;5053949;28;20460;-66
2022/10/14 20:12:57;;;;;;;1.50;1.30;;;21.30;99.90;;;;;;5072768;28;20458;-67
2022/10/14 20:15:24;;;;;;;1.33;1.10;;;21.30;99.90;;;;;;5073753;28;20447;-65
2022/10/14 20:17:51;;;;;;;1.50;1.40;;;21.30;99.90;;;;;;5072851;28;20523;-67
2022/10/14 20:20:18;;;;;;;1.30;1.30;;;21.40;99.90;;;;;;5072606;28;20879;-66
2022/10/14 20:22:45;;;;;;;1.60;1.50;;;21.30;99.90;;;;;;5055581;28;20531;-65
2022/10/14 20:25:12;;;;;;;1.77;1.50;;;21.30;99.90;;;;;;5052830;28;20613;-66
2022/10/14 20:27:41;;;;;;;1.40;1.40;;;21.30;99.90;;;;;;5052758;28;20883;-67
2022/10/14 20:30:09;;;;;;;1.10;1.10;;;21.30;99.90;;;;;;5052747;28;20826;-66
2022/10/14 20:32:36;;;;;;;1.77;1.77;;;21.20;99.90;;;;;;5067447;28;20479;-66
2022/10/14 20:35:03;;;;;;;1.30;1.30;;;21.20;99.90;;;;;;5072188;28;20443;-66
2022/10/14 20:37:31;;;;;;;1.93;1.83;;;21.20;99.90;;;;;;5072258;28;20479;-68
2022/10/14 20:39:58;;;;;;;1.57;1.47;;;21.20;99.90;;;;;;5072464;28;20471;-66
2022/10/14 20:42:25;;;;;;;1.73;1.63;;;21.20;99.90;;;;;;5059423;28;20809;-66
2022/10/14 20:44:53;;;;;;;1.90;1.80;;;21.20;99.90;;;;;;5052801;28;20476;-66
2022/10/14 20:47:20;;;;;;;1.10;1.10;;;21.20;99.90;;;;;;5052148;28;20444;-66
2022/10/14 20:49:47;;;;;;;1.10;1.10;;;21.20;99.90;;;;;;5052647;28;20452;-67
2022/10/14 20:52:14;;;;;;;1.40;1.30;;;21.20;99.90;;;;;;5063015;28;20451;-66
2022/10/14 20:54:41;;;;;;;1.50;1.43;;;21.10;99.90;;;;;;5071916;28;20471;-67
2022/10/14 20:57:09;;;;;;;1.43;1.43;;;21.20;99.90;;;;;;5071800;28;20483;-66
2022/10/14 20:59:39;;;;;;;1.40;1.40;;;21.10;99.90;;;;;;5072305;28;20530;-66
2022/10/14 21:02:08;;;;;;;1.63;1.53;;;21.10;99.90;;;;;;5062075;28;20451;-66
2022/10/14 21:04:35;;;;;;;1.43;1.43;;;21.10;99.90;;;;;;5051781;28;20456;-66
2022/10/14 21:07:02;;;;;;;1.50;1.40;;;21.20;99.90;;;;;;5052045;28;20447;-67
2022/10/14 21:09:29;;;;;;;1.07;1.07;;;21.10;99.90;;;;;;5052366;28;20475;-66
2022/10/14 21:11:56;;;;;;;1.50;1.50;;;21.20;99.90;;;;;;5059815;28;20502;-67
2022/10/14 21:14:23;;;;;;;1.20;1.20;;;21.10;99.90;;;;;;5071563;28;20502;-66
2022/10/14 21:16:50;;;;;;;1.80;1.70;;;21.10;99.90;;;;;;5072099;28;20491;-68
2022/10/14 21:19:19;;;;;;;1.43;1.33;;;21.10;99.90;;;;;;5072473;28;20443;-68
2022/10/14 21:21:48;;;;;;;1.30;1.30;;;21.10;99.90;;;;;;5065799;28;20902;-68
2022/10/14 21:24:17;;;;;;;1.63;1.47;;;21.10;99.90;;;;;;5052212;28;20444;-68
2022/10/14 21:26:45;;;;;;;1.30;1.20;;;21.10;99.90;;;;;;5052357;28;20939;-69
2022/10/14 21:29:12;;;;;;;1.37;1.30;;;21.10;99.90;;;;;;5052383;28;20585;-68
2022/10/14 21:31:39;;;;;;;2.07;1.80;;;21.10;99.90;;;;;;5052490;28;21042;-69
2022/10/14 21:34:07;;;;;;;1.40;1.40;;;21.10;99.90;;;;;;5052333;28;20444;-69
